createdAt,value
2023-03-02T11:51:34.337Z,57.24
2023-03-02T11:52:41.760Z,54.28
2023-03-02T11:54:13.353Z,52.13
2023-03-02T11:55:22.687Z,51.02
2023-03-02T11:56:25.326Z,49.10
2023-03-02T11:59:05.059Z,51.34
2023-03-02T12:00:33.376Z,52.22
2023-03-02T12:01:37.976Z,50.20
2023-03-02T12:02:39.525Z,52.03
2023-03-02T12:03:42.101Z,51.95
2023-03-02T12:04:43.663Z,51.51
2023-03-02T12:05:58.580Z,53.24
2023-03-02T12:07:03.179Z,54.69
2023-03-02T12:08:15.078Z,54.38
2023-03-02T12:09:22.551Z,55.81
2023-03-02T12:10:43.983Z,57.53
2023-03-02T12:11:46.205Z,56.79
2023-03-02T12:13:02.223Z,55.96
2023-03-02T12:14:27.381Z,57.20
2023-03-02T12:15:46.722Z,55.73
2023-03-02T12:16:48.152Z,56.42
2023-03-02T12:17:49.565Z,57.31
2023-03-02T12:18:52.779Z,55.46
2023-03-02T12:20:08.114Z,55.70
2023-03-02T12:21:21.141Z,56.03
2023-03-02T12:22:29.036Z,57.17
2023-03-02T12:23:32.841Z,57.39
2023-03-02T12:24:37.913Z,57.40
2023-03-02T12:25:49.518Z,57.32
2023-03-02T12:27:09.214Z,56.30
2023-03-02T12:28:33.212Z,57.53
2023-03-02T12:29:42.181Z,57.52
2023-03-02T12:30:43.700Z,55.63
2023-03-02T12:31:54.424Z,54.01
2023-03-02T12:33:19.362Z,53.91
2023-03-02T12:34:35.044Z,52.21
2023-03-02T12:35:37.426Z,55.53
2023-03-02T12:36:43.904Z,55.19
2023-03-02T12:38:00.711Z,55.60
2023-03-02T12:39:34.831Z,55.15
2023-03-02T12:40:43.429Z,54.84
2023-03-02T12:42:15.931Z,54.77
2023-03-02T12:43:29.010Z,53.61
2023-03-02T12:44:39.656Z,53.80
2023-03-02T12:46:27.791Z,52.38
2023-03-02T12:47:30.888Z,53.06
2023-03-02T12:48:47.616Z,52.26
2023-03-02T12:49:59.108Z,51.25
2023-03-02T12:51:04.248Z,51.14
2023-03-02T12:52:34.933Z,51.07
2023-03-02T12:53:37.452Z,52.26
2023-03-02T12:54:38.815Z,52.24
2023-03-02T12:55:40.855Z,52.52
2023-03-02T12:56:42.767Z,52.83
2023-03-02T12:57:56.928Z,54.68
2023-03-02T12:58:58.404Z,54.93
2023-03-02T13:00:03.543Z,55.01
2023-03-02T13:01:05.775Z,57.04
2023-03-02T13:02:24.023Z,57.14
2023-03-02T13:03:27.820Z,57.35
2023-03-02T13:04:29.265Z,56.11
2023-03-02T13:05:33.599Z,55.75
2023-03-02T13:06:39.452Z,55.72
2023-03-02T13:07:51.219Z,54.99
2023-03-02T13:08:58.274Z,55.35
2023-03-02T13:09:59.916Z,54.90
2023-03-02T13:11:02.175Z,55.21
2023-03-02T13:12:03.746Z,54.59
2023-03-02T13:13:19.038Z,54.02
2023-03-02T13:14:27.288Z,53.32
2023-03-02T13:15:29.102Z,52.77
2023-03-02T13:16:33.708Z,52.50
2023-03-02T13:17:35.336Z,51.48
2023-03-02T13:18:39.446Z,50.63
2023-03-02T13:19:40.932Z,51.15
2023-03-02T13:20:42.626Z,51.99
2023-03-02T13:21:44.220Z,51.40
2023-03-02T13:22:46.070Z,51.94
2023-03-02T13:23:50.731Z,50.79
2023-03-02T13:24:58.039Z,52.00
2023-03-02T13:26:02.557Z,50.59
2023-03-02T13:27:07.103Z,50.62
2023-03-02T13:28:27.403Z,51.06
2023-03-02T13:29:31.666Z,51.30
2023-03-02T13:30:35.372Z,50.80
2023-03-02T13:31:36.950Z,51.15
2023-03-02T13:32:43.292Z,50.84
2023-03-02T13:33:47.280Z,50.68
2023-03-02T13:34:57.291Z,49.72
2023-03-02T13:35:59.496Z,49.63
2023-03-02T13:37:00.941Z,50.24
2023-03-02T13:38:06.140Z,49.61
2023-03-02T13:39:20.068Z,47.93
2023-03-02T13:40:27.141Z,46.85
2023-03-02T13:41:30.965Z,45.82
2023-03-02T13:42:38.429Z,47.22
2023-03-02T13:43:40.229Z,46.61
2023-03-02T13:44:41.848Z,47.69
2023-03-02T13:45:57.962Z,49.32
2023-03-02T13:47:00.520Z,49.87
2023-03-02T13:48:15.314Z,49.53
2023-03-02T13:49:26.675Z,48.88
2023-03-02T13:50:31.589Z,49.56
2023-03-02T13:51:36.894Z,49.53
2023-03-02T13:52:38.293Z,49.63
2023-03-02T13:53:45.419Z,49.08
2023-03-02T13:54:48.074Z,48.58
2023-03-02T13:55:49.987Z,48.52
2023-03-02T13:56:53.551Z,47.76
2023-03-02T13:57:56.094Z,48.25
2023-03-02T13:58:57.998Z,48.67
2023-03-02T13:59:59.903Z,49.32
2023-03-02T14:01:01.983Z,49.47
2023-03-02T14:02:11.162Z,48.85
2023-03-02T14:03:22.999Z,49.14
2023-03-02T14:04:24.619Z,50.00
2023-03-02T14:05:32.973Z,51.02
2023-03-02T14:06:34.794Z,51.54
2023-03-02T14:07:36.410Z,50.98
2023-03-02T14:08:37.881Z,50.66
2023-03-02T14:09:39.341Z,50.53
2023-03-02T14:10:42.455Z,50.36
2023-03-02T14:11:46.674Z,50.33
2023-03-02T14:12:55.937Z,51.41
2023-03-02T14:13:57.377Z,51.32
2023-03-02T14:15:01.955Z,50.49
2023-03-02T14:16:03.543Z,49.61
2023-03-02T14:17:14.249Z,49.58
2023-03-02T14:18:37.477Z,50.78
2023-03-02T14:19:38.815Z,50.67
2023-03-02T14:20:40.204Z,50.50
2023-03-02T14:21:43.287Z,50.54
2023-03-02T14:22:45.945Z,50.60
2023-03-02T14:23:47.479Z,51.19
2023-03-02T14:24:49.181Z,51.85
2023-03-02T14:25:51.834Z,51.80
2023-03-02T14:26:53.286Z,52.24
2023-03-02T14:27:54.823Z,51.54
2023-03-02T14:29:05.591Z,51.39
2023-03-02T14:30:27.766Z,50.57
2023-03-02T14:31:29.330Z,50.80
2023-03-02T14:32:31.359Z,50.70
2023-03-02T14:33:32.822Z,51.79
2023-03-02T14:34:37.004Z,52.21
2023-03-02T14:35:38.558Z,51.38
2023-03-02T14:36:41.502Z,51.61
2023-03-02T14:37:47.024Z,52.10
2023-03-02T14:38:48.498Z,51.72
2023-03-02T14:39:53.001Z,51.56
2023-03-02T14:40:56.337Z,51.43
2023-03-02T14:41:58.176Z,51.41
2023-03-02T14:42:59.826Z,51.85
2023-03-02T14:44:01.254Z,51.32
2023-03-02T14:45:02.710Z,51.78
2023-03-02T14:46:04.196Z,52.05
2023-03-02T14:47:05.664Z,52.30
2023-03-02T14:48:06.997Z,51.08
2023-03-02T14:49:08.440Z,51.46
2023-03-02T14:50:11.781Z,50.59
2023-03-02T14:51:23.560Z,49.96
2023-03-02T14:52:42.512Z,49.41
2023-03-02T14:53:43.959Z,49.76
2023-03-02T14:54:53.968Z,49.01
2023-03-02T14:55:55.510Z,48.47
2023-03-02T14:56:57.168Z,48.06
2023-03-02T14:58:15.286Z,48.38
2023-03-02T14:59:16.663Z,48.64
2023-03-02T15:00:18.709Z,49.02
2023-03-02T15:01:21.338Z,48.56
2023-03-02T15:02:25.996Z,48.98
2023-03-02T15:03:29.234Z,49.23
2023-03-02T15:04:30.649Z,49.72
2023-03-02T15:05:32.139Z,49.39
2023-03-02T15:06:38.452Z,48.04
2023-03-02T15:07:40.861Z,48.07
2023-03-02T15:08:42.300Z,47.74
2023-03-02T15:09:44.216Z,47.18
2023-03-02T15:10:47.030Z,47.03
2023-03-02T15:11:48.443Z,46.69
2023-03-02T15:12:50.083Z,47.70
2023-03-02T15:13:51.497Z,48.16
2023-03-02T15:14:53.004Z,48.69
2023-03-02T15:15:54.520Z,49.27
2023-03-02T15:16:55.984Z,49.40
2023-03-02T15:17:57.371Z,49.31
2023-03-02T15:18:59.089Z,49.54
2023-03-02T15:20:00.529Z,48.83
2023-03-02T15:21:01.950Z,49.59
2023-03-02T15:22:04.493Z,49.53
2023-03-02T15:23:06.189Z,48.55
2023-03-02T15:24:07.693Z,48.90
2023-03-02T15:25:09.576Z,48.85
2023-03-02T15:26:12.372Z,48.25
2023-03-02T15:27:13.736Z,48.02
2023-03-02T15:28:15.074Z,48.90
2023-03-02T15:29:17.991Z,49.26
2023-03-02T15:30:19.598Z,49.60
2023-03-02T15:31:21.264Z,49.67
2023-03-02T15:32:22.755Z,49.83
2023-03-02T15:33:24.162Z,49.76
2023-03-02T15:34:25.710Z,49.82
2023-03-02T15:35:29.328Z,50.54
2023-03-02T15:36:30.846Z,50.27
2023-03-02T15:37:32.235Z,50.54
2023-03-02T15:38:35.682Z,50.26
2023-03-02T15:39:37.504Z,50.10
2023-03-02T15:40:38.833Z,49.75
2023-03-02T15:41:42.302Z,49.84
2023-03-02T15:42:43.791Z,50.14
2023-03-02T15:43:50.366Z,49.38
2023-03-02T15:44:51.769Z,49.19
2023-03-02T15:45:53.200Z,48.76
2023-03-02T15:46:57.998Z,48.63
2023-03-02T15:47:59.439Z,48.91
2023-03-02T15:49:00.851Z,48.44
2023-03-02T15:50:02.275Z,48.66
2023-03-02T15:51:07.937Z,48.21
2023-03-02T15:52:11.275Z,47.62
2023-03-02T15:53:12.640Z,47.43
2023-03-02T15:54:14.067Z,47.45
2023-03-02T15:55:15.580Z,47.42
2023-03-02T15:56:17.499Z,47.44
2023-03-02T15:57:18.970Z,47.02
2023-03-02T15:58:21.879Z,47.39
2023-03-02T15:59:28.237Z,47.27
2023-03-02T16:00:29.691Z,47.41
2023-03-02T16:01:31.125Z,47.93
2023-03-02T16:02:32.609Z,47.50
2023-03-02T16:03:34.362Z,47.11
2023-03-02T16:04:35.988Z,47.30
2023-03-02T16:05:37.347Z,47.95
2023-03-02T16:06:39.034Z,47.34
2023-03-02T16:07:40.361Z,48.35
2023-03-02T16:08:41.842Z,48.49
2023-03-02T16:09:45.316Z,48.74
2023-03-02T16:10:58.875Z,48.51
2023-03-02T16:12:01.121Z,48.43
2023-03-02T16:13:04.574Z,48.56
2023-03-02T16:14:06.054Z,49.07
2023-03-02T16:15:08.542Z,48.91
2023-03-02T16:16:10.106Z,48.86
2023-03-02T16:17:12.129Z,48.77
2023-03-02T16:18:14.361Z,48.35
2023-03-02T16:19:19.116Z,48.96
2023-03-02T16:20:20.781Z,49.23
2023-03-02T16:21:23.335Z,49.83
2023-03-02T16:22:24.763Z,49.63
2023-03-02T16:23:26.353Z,49.55
2023-03-02T16:24:28.048Z,50.02
2023-03-02T16:25:29.555Z,50.45
2023-03-02T16:26:33.370Z,50.78
2023-03-02T16:27:34.900Z,50.68
2023-03-02T16:28:37.000Z,51.55
2023-03-02T16:29:38.461Z,51.55
2023-03-02T16:30:41.121Z,51.65
2023-03-02T16:31:46.221Z,51.91
2023-03-02T16:32:47.686Z,52.12
2023-03-02T16:33:50.414Z,52.48
2023-03-02T16:34:55.128Z,52.75
2023-03-02T16:35:56.549Z,53.07
2023-03-02T16:36:57.898Z,53.07
2023-03-02T16:37:59.823Z,53.02
2023-03-02T16:39:01.279Z,53.30
2023-03-02T16:40:02.886Z,53.56
2023-03-02T16:41:05.673Z,53.84
